Time;durP1;ratioP1;P1;durP2;ratioP2;P2;SDS_P1;SDS_P2;PMS_P1;PMS_P2;Temp;Humidity;BMP_temperature;BMP_pressure;BME280_temperature;BME280_humidity;BME280_pressure;Samples;Min_cycle;Max_cycle;Signal;HPM_P1;HPM_P2
2023/04/29 00:00:10;;;;;;;4.60;3.50;;;;;;;15.68;98.68;99124.03;333031;28;18199;-71
2023/04/29 00:00:22;;;;;;;4.07;3.25;;;;;;;15.69;98.50;99120.44;335639;28;5546;-70
2023/04/29 00:00:35;;;;;;;3.95;3.10;;;;;;;15.69;98.58;99130.94;332207;28;18168;-72
2023/04/29 00:00:47;;;;;;;4.53;3.22;;;;;;;15.67;98.39;99127.56;335906;28;4560;-71
2023/04/29 00:00:59;;;;;;;5.07;3.00;;;;;;;15.61;98.75;99127.94;333183;28;10442;-71
2023/04/29 00:01:11;;;;;;;4.82;2.90;;;;;;;15.58;98.62;99127.19;335669;28;5449;-71
2023/04/29 00:01:23;;;;;;;4.82;2.80;;;;;;;15.61;98.79;99125.34;335816;28;4702;-70
2023/04/29 00:01:35;;;;;;;4.20;2.90;;;;;;;15.59;98.69;99120.19;333021;28;18272;-70
2023/04/29 00:01:47;;;;;;;3.85;3.10;;;;;;;15.60;98.83;99126.28;335657;28;4685;-72
2023/04/29 00:02:00;;;;;;;3.80;3.45;;;;;;;15.61;98.66;99122.72;333092;28;18868;-70
2023/04/29 00:02:12;;;;;;;6.45;5.85;;;;;;;15.61;98.74;99120.09;335035;28;6098;-70
2023/04/29 00:02:25;;;;;;;8.23;7.43;;;;;;;15.63;98.71;99126.91;331424;29;9362;-70
2023/04/29 00:02:37;;;;;;;8.25;7.45;;;;;;;15.65;98.56;99118.97;334198;29;4700;-70
2023/04/29 00:02:49;;;;;;;7.95;7.25;;;;;;;15.65;98.44;99121.59;331796;29;18121;-73
2023/04/29 00:03:02;;;;;;;6.93;6.28;;;;;;;15.62;98.51;99120.00;335226;29;5583;-70
2023/04/29 00:03:18;;;;;;;4.93;4.05;;;;;;;15.53;98.43;99124.03;331905;29;18102;-73
2023/04/29 00:03:31;;;;;;;6.13;3.10;;;;;;;15.55;98.58;99126.53;332118;29;18407;-70
2023/04/29 00:03:44;;;;;;;5.50;2.90;;;;;;;15.55;98.71;99119.56;332289;28;5123;-70
2023/04/29 00:03:57;;;;;;;5.50;2.97;;;;;;;15.56;98.62;99120.38;335058;28;17533;-70
2023/04/29 00:04:09;;;;;;;5.65;3.03;;;;;;;15.56;98.47;99126.47;333202;28;18210;-70
2023/04/29 00:04:22;;;;;;;4.97;2.85;;;;;;;15.55;98.83;99119.56;336001;28;5438;-71
2023/04/29 00:04:34;;;;;;;7.93;6.43;;;;;;;15.57;99.00;99117.69;332332;28;18173;-70
2023/04/29 00:04:46;;;;;;;12.23;11.18;;;;;;;15.54;98.86;99117.03;334519;29;5199;-70
2023/04/29 00:04:59;;;;;;;16.67;14.98;;;;;;;15.54;98.88;99123.09;331487;29;9590;-72
2023/04/29 00:05:12;;;;;;;13.02;10.38;;;;;;;15.54;98.91;99122.25;334520;29;4706;-72
2023/04/29 00:05:24;;;;;;;8.38;5.10;;;;;;;15.52;99.18;99117.09;330131;29;18251;-71
2023/04/29 00:05:36;;;;;;;3.45;2.80;;;;;;;15.53;99.21;99116.19;332662;29;4570;-70
2023/04/29 00:05:49;;;;;;;3.80;3.00;;;;;;;15.52;99.02;99122.34;330780;29;10597;-70
2023/04/29 00:06:01;;;;;;;3.90;3.00;;;;;;;15.53;99.03;99124.03;333028;29;4640;-74
2023/04/29 00:06:13;;;;;;;3.75;2.90;;;;;;;15.52;99.15;99119.72;332983;29;4533;-71
2023/04/29 00:06:27;;;;;;;3.42;2.80;;;;;;;15.50;99.33;99116.34;329384;29;18190;-70
2023/04/29 00:06:39;;;;;;;4.07;2.85;;;;;;;15.52;99.09;99118.88;328915;29;9957;-70
2023/04/29 00:06:51;;;;;;;4.40;2.80;;;;;;;15.51;99.04;99114.56;331743;29;4924;-74
2023/04/29 00:07:03;;;;;;;3.90;2.60;;;;;;;15.50;98.96;99116.34;334411;29;5376;-71
2023/04/29 00:07:15;;;;;;;4.05;2.65;;;;;;;15.48;98.89;99118.22;330880;29;17855;-72
2023/04/29 00:07:27;;;;;;;4.13;3.65;;;;;;;15.49;98.89;99117.31;335211;28;5213;-70
2023/04/29 00:07:39;;;;;;;4.45;4.00;;;;;;;15.51;98.91;99117.19;332022;29;9444;-70
2023/04/29 00:07:50;;;;;;;4.97;3.55;;;;;;;15.52;99.01;99114.47;334174;29;4616;-70
2023/04/29 00:08:03;;;;;;;4.75;3.20;;;;;;;15.53;98.90;99118.81;334448;29;5241;-70
2023/04/29 00:08:15;;;;;;;4.93;3.33;;;;;;;15.50;98.90;99112.91;331058;29;17850;-70
2023/04/29 00:08:27;;;;;;;4.13;3.50;;;;;;;15.48;99.15;99115.59;332972;29;4601;-70
2023/04/29 00:08:39;;;;;;;3.92;3.42;;;;;;;15.49;98.97;99117.31;330936;29;19053;-75
2023/04/29 00:08:52;;;;;;;3.72;2.95;;;;;;;15.50;99.04;99118.97;334331;29;4655;-70
2023/04/29 00:09:04;;;;;;;9.80;8.88;;;;;;;15.52;98.86;99119.72;332104;29;5575;-71
2023/04/29 00:09:16;;;;;;;16.83;15.38;;;;;;;15.49;98.78;99114.69;332896;29;19250;-71
2023/04/29 00:09:27;;;;;;;17.38;15.88;;;;;;;15.46;99.15;99120.09;334786;29;4726;-72
2023/04/29 00:09:40;;;;;;;9.77;8.90;;;;;;;15.46;98.95;99114.03;331467;28;17999;-71
2023/04/29 00:09:52;;;;;;;3.97;3.28;;;;;;;15.46;99.05;99114.03;335899;28;4563;-70
2023/04/29 00:10:05;;;;;;;3.78;3.00;;;;;;;15.47;98.97;99120.94;333046;28;19058;-71
2023/04/29 00:10:17;;;;;;;3.90;3.38;;;;;;;15.47;99.27;99113.91;335664;28;5300;-70
2023/04/29 00:10:29;;;;;;;3.80;3.40;;;;;;;15.48;99.09;99118.22;331986;28;8611;-72
2023/04/29 00:10:41;;;;;;;4.00;3.63;;;;;;;15.49;99.12;99114.69;335680;28;5081;-70
2023/04/29 00:10:53;;;;;;;5.10;4.00;;;;;;;15.45;99.17;99118.41;335855;28;4573;-72
2023/04/29 00:11:05;;;;;;;6.35;4.43;;;;;;;15.46;99.32;99114.03;332565;28;18248;-70
2023/04/29 00:11:17;;;;;;;10.13;7.80;;;;;;;15.42;99.74;99112.53;335229;28;4715;-72
2023/04/29 00:11:29;;;;;;;9.38;8.00;;;;;;;15.43;99.65;99115.03;331965;29;6980;-72
2023/04/29 00:11:41;;;;;;;4.25;3.90;;;;;;;15.44;99.81;99113.28;334651;29;5344;-70
2023/04/29 00:11:56;;;;;;;3.47;3.15;;;;;;;15.42;99.67;99113.38;331976;29;17497;-70
2023/04/29 00:12:09;;;;;;;4.72;4.22;;;;;;;15.42;99.56;99113.38;333390;29;4921;-71
2023/04/29 00:12:21;;;;;;;4.85;4.45;;;;;;;15.44;99.74;99121.13;330617;29;18148;-72
2023/04/29 00:12:33;;;;;;;3.72;3.28;;;;;;;15.43;99.71;99119.44;333723;28;4685;-71
2023/04/29 00:12:45;;;;;;;3.78;3.00;;;;;;;15.39;99.46;99113.53;331584;29;18009;-72
2023/04/29 00:12:57;;;;;;;4.10;2.85;;;;;;;15.40;99.81;99115.25;334732;29;5195;-70
2023/04/29 00:13:09;;;;;;;4.72;2.72;;;;;;;15.43;99.93;99111.59;332028;29;9774;-70
2023/04/29 00:13:21;;;;;;;5.28;2.90;;;;;;;15.39;99.81;99116.16;334218;29;5567;-71
2023/04/29 00:13:33;;;;;;;4.18;3.03;;;;;;;15.41;100.00;99116.91;335560;28;5212;-71
2023/04/29 00:13:45;;;;;;;3.40;2.95;;;;;;;15.40;100.00;99120.47;333048;28;18105;-72
2023/04/29 00:13:57;;;;;;;4.03;2.90;;;;;;;15.41;100.00;99111.66;333915;28;5044;-75
2023/04/29 00:14:09;;;;;;;4.20;3.03;;;;;;;15.41;100.00;99116.91;331986;28;14423;-74
2023/04/29 00:14:22;;;;;;;4.50;3.08;;;;;;;15.34;99.92;99116.44;335979;28;5431;-72
2023/04/29 00:14:33;;;;;;;3.47;2.92;;;;;;;15.36;100.00;99113.75;336264;28;4570;-72
2023/04/29 00:14:48;;;;;;;3.80;2.67;;;;;;;15.40;100.00;99115.25;333315;28;18288;-70
2023/04/29 00:15:03;;;;;;;3.70;2.60;;;;;;;15.41;99.94;99116.91;332887;28;18458;-70
2023/04/29 00:15:15;;;;;;;6.07;5.50;;;;;;;15.40;100.00;99115.25;332683;28;17668;-73
2023/04/29 00:15:27;;;;;;;7.13;6.43;;;;;;;15.39;100.00;99113.53;335858;28;4543;-71
2023/04/29 00:15:40;;;;;;;5.22;4.75;;;;;;;15.38;100.00;99123.19;333295;28;16046;-70
2023/04/29 00:15:52;;;;;;;3.47;2.92;;;;;;;15.40;100.00;99115.25;334838;28;5359;-70
2023/04/29 00:16:05;;;;;;;4.15;2.75;;;;;;;15.30;100.00;99114.94;333725;28;10282;-69
2023/04/29 00:16:17;;;;;;;3.92;2.67;;;;;;;15.27;100.00;99112.53;336133;28;5929;-69
2023/04/29 00:16:29;;;;;;;2.78;2.55;;;;;;;15.29;100.00;99107.19;332729;28;10286;-70
2023/04/29 00:16:41;;;;;;;4.45;4.05;;;;;;;15.29;100.00;99115.03;335681;28;4513;-70
2023/04/29 00:16:53;;;;;;;5.65;4.53;;;;;;;15.32;100.00;99113.09;335899;28;4577;-69
2023/04/29 00:17:05;;;;;;;6.35;4.05;;;;;;;15.37;100.00;99118.03;332445;28;17820;-69
2023/04/29 00:17:17;;;;;;;4.45;2.83;;;;;;;15.42;100.00;99117.78;335643;28;4606;-70
2023/04/29 00:17:29;;;;;;;3.55;3.00;;;;;;;15.41;100.00;99116.91;333226;28;6269;-69
2023/04/29 00:17:41;;;;;;;4.68;4.13;;;;;;;15.40;100.00;99115.25;335732;28;4566;-70
2023/04/29 00:17:54;;;;;;;6.15;4.40;;;;;;;15.36;100.00;99113.75;336263;28;5238;-70
2023/04/29 00:18:08;;;;;;;5.63;3.92;;;;;;;15.36;100.00;99118.97;333458;28;18321;-69
2023/04/29 00:18:20;;;;;;;6.40;2.88;;;;;;;15.36;100.00;99113.75;333221;28;17987;-70
2023/04/29 00:18:32;;;;;;;5.85;3.17;;;;;;;15.32;100.00;99114.88;335069;28;4476;-69
2023/04/29 00:18:44;;;;;;;6.35;4.35;;;;;;;15.35;100.00;99115.53;331144;28;16462;-71
2023/04/29 00:18:56;;;;;;;6.50;5.15;;;;;;;15.38;100.00;99117.13;335846;28;4510;-69
2023/04/29 00:19:08;;;;;;;6.32;4.93;;;;;;;15.36;100.00;99118.97;335098;28;4529;-69
2023/04/29 00:19:20;;;;;;;5.32;4.40;;;;;;;15.34;100.00;99116.44;332477;28;19200;-70
2023/04/29 00:19:32;;;;;;;5.20;4.72;;;;;;;15.34;100.00;99111.22;335023;28;4603;-69
2023/04/29 00:19:44;;;;;;;5.82;5.32;;;;;;;15.34;100.00;99111.22;333568;28;11017;-69
2023/04/29 00:19:56;;;;;;;4.75;4.35;;;;;;;15.37;100.00;99118.03;336309;28;5126;-69
2023/04/29 00:20:09;;;;;;;3.95;3.65;;;;;;;15.39;100.00;99113.53;335526;28;5542;-70
2023/04/29 00:20:21;;;;;;;4.30;3.42;;;;;;;15.37;100.00;99115.41;333846;28;18202;-69
2023/04/29 00:20:33;;;;;;;4.80;3.40;;;;;;;15.37;100.00;99110.19;335580;28;4621;-69
2023/04/29 00:20:45;;;;;;;4.85;3.25;;;;;;;15.38;100.00;99112.72;332981;28;8201;-70
2023/04/29 00:20:57;;;;;;;5.30;3.13;;;;;;;15.38;100.00;99111.88;336198;28;5174;-69
2023/04/29 00:21:09;;;;;;;4.97;3.42;;;;;;;15.39;100.00;99113.53;333670;28;8124;-69
2023/04/29 00:21:26;;;;;;;5.22;4.53;;;;;;;15.42;100.00;99108.13;334845;28;17483;-69
2023/04/29 00:21:37;;;;;;;5.28;4.45;;;;;;;15.43;100.00;99115.03;333161;28;18256;-70
2023/04/29 00:21:50;;;;;;;4.55;3.55;;;;;;;15.28;100.00;99113.38;331670;28;18170;-73
2023/04/29 00:22:02;;;;;;;4.88;3.30;;;;;;;15.30;100.00;99116.75;335912;28;4487;-70
2023/04/29 00:22:16;;;;;;;5.55;3.70;;;;;;;15.28;100.00;99113.38;332882;28;17750;-69
2023/04/29 00:22:28;;;;;;;5.82;3.80;;;;;;;15.30;100.00;99104.47;334858;29;5550;-70
2023/04/29 00:22:40;;;;;;;6.40;4.25;;;;;;;15.30;100.00;99114.13;333225;29;18473;-70
2023/04/29 00:22:52;;;;;;;7.95;6.15;;;;;;;15.26;100.00;99112.63;335950;29;5448;-69
2023/04/29 00:23:06;;;;;;;9.10;8.18;;;;;;;15.28;100.00;99110.75;332962;29;11282;-69
2023/04/29 00:23:17;;;;;;;8.55;7.65;;;;;;;15.28;100.00;99108.97;335933;29;4987;-69
2023/04/29 00:23:29;;;;;;;6.90;5.40;;;;;;;15.29;100.00;99107.19;332701;28;19047;-73
2023/04/29 00:23:41;;;;;;;5.20;4.53;;;;;;;15.34;100.00;99115.63;335203;29;5169;-71
2023/04/29 00:23:54;;;;;;;4.70;4.00;;;;;;;15.31;100.00;99110.56;335799;28;4897;-71
2023/04/29 00:24:06;;;;;;;5.43;4.38;;;;;;;15.32;100.00;99107.00;332909;28;18229;-72
2023/04/29 00:24:17;;;;;;;6.88;5.78;;;;;;;15.33;100.00;99119.16;335353;28;4704;-71
2023/04/29 00:24:29;;;;;;;7.20;6.07;;;;;;;15.26;100.00;99115.25;333105;28;17818;-70
2023/04/29 00:24:41;;;;;;;6.43;5.22;;;;;;;15.22;100.00;99117.19;335534;28;4701;-69
2023/04/29 00:24:53;;;;;;;5.60;4.05;;;;;;;15.24;100.00;99111.88;335826;28;4706;-70
2023/04/29 00:25:06;;;;;;;5.13;4.10;;;;;;;15.29;100.00;99107.19;333105;28;18180;-70
2023/04/29 00:25:19;;;;;;;6.47;4.22;;;;;;;15.32;100.00;99113.09;333843;29;5755;-70
2023/04/29 00:25:34;;;;;;;7.38;4.88;;;;;;;15.35;100.00;99112.91;331171;29;18235;-70
2023/04/29 00:25:46;;;;;;;6.25;4.57;;;;;;;15.38;100.00;99114.50;331456;29;16923;-70
2023/04/29 00:25:58;;;;;;;5.85;4.20;;;;;;;15.34;100.00;99115.63;334269;29;5062;-70
2023/04/29 00:26:10;;;;;;;5.57;4.00;;;;;;;15.29;100.00;99112.41;331821;29;18152;-70
2023/04/29 00:26:22;;;;;;;5.05;4.00;;;;;;;15.31;100.00;99114.03;335440;28;5395;-70
2023/04/29 00:26:34;;;;;;;6.53;4.95;;;;;;;15.28;100.00;99110.75;331992;29;10013;-71
2023/04/29 00:26:46;;;;;;;6.82;4.95;;;;;;;15.30;100.00;99106.25;334051;29;4715;-70
2023/04/29 00:26:58;;;;;;;7.22;4.20;;;;;;;15.32;100.00;99112.25;334063;29;5305;-70
2023/04/29 00:27:10;;;;;;;7.65;4.05;;;;;;;15.32;100.00;99109.63;331184;29;18004;-70
2023/04/29 00:27:22;;;;;;;8.93;4.22;;;;;;;15.30;100.00;99108.88;334221;29;5271;-70
2023/04/29 00:27:34;;;;;;;8.73;4.78;;;;;;;15.31;100.00;99110.56;330616;29;16222;-71
2023/04/29 00:27:46;;;;;;;8.02;5.60;;;;;;;15.34;100.00;99110.38;334467;29;4569;-70
2023/04/29 00:28:00;;;;;;;6.60;5.72;;;;;;;15.32;100.00;99109.63;333697;29;5183;-70
2023/04/29 00:28:12;;;;;;;6.43;4.57;;;;;;;15.32;100.00;99113.09;331930;29;19108;-70
2023/04/29 00:28:24;;;;;;;5.80;4.05;;;;;;;15.32;100.00;99113.09;330975;29;16427;-71
2023/04/29 00:28:36;;;;;;;4.50;3.45;;;;;;;15.26;100.00;99112.63;335582;28;4530;-70
2023/04/29 00:28:48;;;;;;;4.93;3.83;;;;;;;15.21;100.00;99109.44;334528;28;4580;-70
2023/04/29 00:29:00;;;;;;;6.43;4.88;;;;;;;15.24;100.00;99119.72;332275;28;18309;-69
2023/04/29 00:29:12;;;;;;;7.32;5.20;;;;;;;15.27;100.00;99114.28;335044;28;5385;-70
2023/04/29 00:29:24;;;;;;;6.88;5.13;;;;;;;15.28;100.00;99110.75;332981;28;5229;-71
2023/04/29 00:29:36;;;;;;;6.00;4.90;;;;;;;15.26;100.00;99112.63;335280;28;4664;-70
2023/04/29 00:29:48;;;;;;;6.60;5.13;;;;;;;15.26;100.00;99108.22;335360;28;5396;-70
2023/04/29 00:30:00;;;;;;;5.78;4.45;;;;;;;15.26;100.00;99112.63;332607;28;18421;-70
2023/04/29 00:30:12;;;;;;;5.22;4.05;;;;;;;15.18;100.00;99113.91;334521;28;5182;-70
2023/04/29 00:30:30;;;;;;;4.80;3.83;;;;;;;15.17;100.00;99119.22;332012;28;4609;-71
2023/04/29 00:30:42;;;;;;;5.65;3.80;;;;;;;15.17;100.00;99109.63;333306;28;18078;-70
2023/04/29 00:30:54;;;;;;;5.70;3.75;;;;;;;15.14;100.00;99119.44;336190;28;4498;-69
2023/04/29 00:31:06;;;;;;;5.03;3.45;;;;;;;15.06;100.00;99117.28;333180;28;18034;-70
2023/04/29 00:31:20;;;;;;;6.10;3.50;;;;;;;15.13;100.00;99118.59;335924;28;4623;-70
2023/04/29 00:31:32;;;;;;;7.28;3.85;;;;;;;15.15;100.00;99116.72;333289;28;18036;-70
2023/04/29 00:31:44;;;;;;;6.20;4.10;;;;;;;15.17;100.00;99120.09;333733;28;4761;-71
2023/04/29 00:31:59;;;;;;;5.88;4.63;;;;;;;15.14;100.00;99109.78;332337;28;8321;-71
2023/04/29 00:32:11;;;;;;;7.40;5.00;;;;;;;15.17;100.00;99107.00;335872;28;5190;-70
2023/04/29 00:32:23;;;;;;;7.28;4.90;;;;;;;15.21;100.00;99117.28;336321;28;5299;-70
2023/04/29 00:32:35;;;;;;;7.93;5.50;;;;;;;15.23;100.00;99112.78;333444;28;18201;-71
2023/04/29 00:32:48;;;;;;;7.35;5.72;;;;;;;15.14;100.00;99115.03;336072;28;4497;-70
2023/04/29 00:33:00;;;;;;;7.18;5.68;;;;;;;15.11;100.00;99115.22;333172;28;18257;-70
2023/04/29 00:33:12;;;;;;;6.90;5.57;;;;;;;15.15;100.00;99111.50;335714;28;5457;-70
2023/04/29 00:33:24;;;;;;;6.25;5.10;;;;;;;15.14;100.00;99115.03;333654;28;4562;-71
2023/04/29 00:33:37;;;;;;;6.18;5.32;;;;;;;15.14;100.00;99115.03;335629;28;4667;-70
2023/04/29 00:33:49;;;;;;;5.22;4.55;;;;;;;15.15;100.00;99108.00;335787;28;5382;-70
2023/04/29 00:34:01;;;;;;;4.53;3.97;;;;;;;15.19;100.00;99112.13;333337;28;18249;-70
2023/04/29 00:34:13;;;;;;;5.32;3.88;;;;;;;15.18;100.00;99113.06;336090;28;4856;-70
2023/04/29 00:34:25;;;;;;;6.68;4.03;;;;;;;15.18;100.00;99113.06;332762;28;16289;-71
2023/04/29 00:34:36;;;;;;;7.28;4.03;;;;;;;15.20;100.00;99107.75;335899;28;5103;-70
2023/04/29 00:34:48;;;;;;;6.28;3.80;;;;;;;15.20;100.00;99105.97;335988;28;5455;-70
2023/04/29 00:35:01;;;;;;;5.57;3.88;;;;;;;15.15;100.00;99108.88;333041;28;18423;-70
2023/04/29 00:35:13;;;;;;;6.25;4.85;;;;;;;15.17;100.00;99107.00;335830;28;4660;-70
2023/04/29 00:35:25;;;;;;;7.57;5.88;;;;;;;15.18;100.00;99110.47;332328;28;16947;-70
2023/04/29 00:35:37;;;;;;;8.68;7.05;;;;;;;15.19;100.00;99117.38;334971;28;4568;-70
2023/04/29 00:35:49;;;;;;;7.20;5.95;;;;;;;15.18;100.00;99111.28;328433;28;5759;-70
2023/04/29 00:36:01;;;;;;;5.97;5.38;;;;;;;15.15;100.00;99116.72;332020;28;18236;-70
2023/04/29 00:36:13;;;;;;;6.28;5.40;;;;;;;15.14;100.00;99119.44;334539;28;5338;-70
2023/04/29 00:36:26;;;;;;;6.95;5.40;;;;;;;15.10;100.00;99113.53;332297;28;18325;-70
2023/04/29 00:36:38;;;;;;;7.35;5.50;;;;;;;15.07;100.00;99118.09;335960;28;4830;-68
2023/04/29 00:36:50;;;;;;;6.63;5.88;;;;;;;15.04;100.00;99113.06;333094;28;18765;-71
2023/04/29 00:37:02;;;;;;;6.68;5.57;;;;;;;15.07;100.00;99112.88;336172;28;5181;-70
2023/04/29 00:37:15;;;;;;;7.07;4.68;;;;;;;15.05;100.00;99110.38;333134;28;10526;-71
2023/04/29 00:37:27;;;;;;;6.22;4.22;;;;;;;15.10;100.00;99113.53;335706;28;4568;-70
2023/04/29 00:37:39;;;;;;;5.57;4.03;;;;;;;15.02;100.00;99112.31;332701;28;4674;-71
2023/04/29 00:37:51;;;;;;;4.97;4.00;;;;;;;15.02;100.00;99107.91;334837;28;4606;-70
2023/04/29 00:38:03;;;;;;;6.35;5.57;;;;;;;15.06;100.00;99112.03;334546;28;4692;-70
2023/04/29 00:38:15;;;;;;;8.82;7.60;;;;;;;15.10;100.00;99116.16;332085;28;9315;-71
2023/04/29 00:38:27;;;;;;;10.50;9.18;;;;;;;15.11;100.00;99114.38;335359;28;4695;-69
2023/04/29 00:38:39;;;;;;;8.77;7.35;;;;;;;15.07;100.00;99108.50;333702;28;7565;-71
2023/04/29 00:38:51;;;;;;;8.38;6.90;;;;;;;15.08;100.00;99115.41;335982;28;4584;-70
2023/04/29 00:39:06;;;;;;;6.22;4.65;;;;;;;15.01;100.00;99114.09;336311;28;5366;-70
2023/04/29 00:39:18;;;;;;;4.85;4.28;;;;;;;15.01;100.00;99114.09;331782;28;16027;-70
2023/04/29 00:39:30;;;;;;;5.75;4.32;;;;;;;15.01;100.00;99113.22;333004;28;16860;-70
2023/04/29 00:39:42;;;;;;;6.63;4.47;;;;;;;15.02;100.00;99118.38;335156;28;5226;-69
2023/04/29 00:39:54;;;;;;;7.82;4.88;;;;;;;15.02;100.00;99110.53;333525;28;5290;-71
2023/04/29 00:40:08;;;;;;;7.30;6.30;;;;;;;15.01;100.00;99118.47;335661;28;4590;-69
2023/04/29 00:40:20;;;;;;;7.70;5.82;;;;;;;15.04;100.00;99113.91;331742;28;17686;-67
2023/04/29 00:40:32;;;;;;;6.03;4.35;;;;;;;15.08;100.00;99115.41;335358;28;5304;-70
2023/04/29 00:40:44;;;;;;;6.28;5.68;;;;;;;15.13;100.00;99113.38;333151;28;5423;-69
2023/04/29 00:40:57;;;;;;;11.00;10.00;;;;;;;15.12;100.00;99111.66;334672;28;5429;-70
2023/04/29 00:41:11;;;;;;;10.95;9.93;;;;;;;15.13;100.00;99118.59;334672;29;4523;-70
2023/04/29 00:41:24;;;;;;;7.43;6.32;;;;;;;15.12;100.00;99119.53;331645;29;17877;-70
2023/04/29 00:41:36;;;;;;;6.07;5.07;;;;;;;15.11;100.00;99115.22;332128;29;18171;-70
2023/04/29 00:41:49;;;;;;;5.15;4.35;;;;;;;15.06;100.00;99116.44;335308;28;4695;-70
2023/04/29 00:42:02;;;;;;;5.13;3.70;;;;;;;15.07;100.00;99118.97;333110;28;18215;-70
2023/04/29 00:42:14;;;;;;;5.68;3.70;;;;;;;15.07;100.00;99118.97;335313;28;4729;-68
2023/04/29 00:42:28;;;;;;;5.72;4.45;;;;;;;15.11;100.00;99119.59;330977;29;17866;-70
2023/04/29 00:42:40;;;;;;;7.20;5.82;;;;;;;15.12;100.00;99122.13;331923;28;8583;-68
2023/04/29 00:42:52;;;;;;;8.55;7.25;;;;;;;15.14;100.00;99115.03;333360;29;4533;-70
2023/04/29 00:43:04;;;;;;;7.82;6.78;;;;;;;15.14;100.00;99115.03;334991;29;5235;-69
2023/04/29 00:43:16;;;;;;;6.90;6.10;;;;;;;15.08;100.00;99114.56;331100;29;18373;-69
2023/04/29 00:43:28;;;;;;;5.00;4.50;;;;;;;15.06;100.00;99119.88;334986;28;4835;-69
2023/04/29 00:43:40;;;;;;;6.35;5.75;;;;;;;15.08;100.00;99119.81;331493;29;16624;-71
2023/04/29 00:43:52;;;;;;;7.93;7.13;;;;;;;15.04;100.00;99119.13;334434;29;5061;-70
2023/04/29 00:44:04;;;;;;;8.48;7.63;;;;;;;15.09;100.00;99111.00;332279;29;4797;-70
2023/04/29 00:44:16;;;;;;;6.60;5.75;;;;;;;15.10;100.00;99113.53;331380;28;17865;-68
2023/04/29 00:44:28;;;;;;;6.57;5.63;;;;;;;15.10;100.00;99110.91;334308;28;5524;-69
2023/04/29 00:44:40;;;;;;;6.45;5.15;;;;;;;15.11;100.00;99115.22;331550;28;16217;-71
2023/04/29 00:44:52;;;;;;;6.30;4.63;;;;;;;15.14;100.00;99119.44;334798;28;4555;-70
2023/04/29 00:45:04;;;;;;;5.63;3.80;;;;;;;15.12;100.00;99116.06;334612;28;4711;-68
2023/04/29 00:45:19;;;;;;;5.95;4.45;;;;;;;15.10;100.00;99117.94;331813;28;17928;-70
2023/04/29 00:45:31;;;;;;;7.00;5.43;;;;;;;15.08;100.00;99120.63;333701;28;18183;-70
2023/04/29 00:45:45;;;;;;;7.78;5.47;;;;;;;15.07;100.00;99113.72;335468;28;5626;-70
2023/04/29 00:45:57;;;;;;;7.28;4.97;;;;;;;15.10;100.00;99115.31;333539;28;18549;-70
2023/04/29 00:46:10;;;;;;;6.35;5.10;;;;;;;15.12;100.00;99116.91;333281;28;10369;-71
2023/04/29 00:46:22;;;;;;;6.82;4.43;;;;;;;15.09;100.00;99116.22;335790;28;4832;-70
2023/04/29 00:46:34;;;;;;;5.15;3.78;;;;;;;15.14;100.00;99115.03;335260;28;4549;-69
2023/04/29 00:46:46;;;;;;;4.75;4.25;;;;;;;15.14;100.00;99122.88;332399;28;18318;-69
2023/04/29 00:46:59;;;;;;;6.15;5.53;;;;;;;15.12;100.00;99116.06;334544;29;4700;-70
2023/04/29 00:47:11;;;;;;;6.28;5.53;;;;;;;15.13;100.00;99115.97;331953;28;19071;-70
2023/04/29 00:47:23;;;;;;;5.97;5.22;;;;;;;15.13;100.00;99118.59;335429;28;5292;-70
2023/04/29 00:47:35;;;;;;;6.15;5.18;;;;;;;15.13;100.00;99120.34;332299;28;17953;-71
2023/04/29 00:47:50;;;;;;;6.15;5.22;;;;;;;15.10;100.00;99118.78;332052;29;19192;-69
2023/04/29 00:48:03;;;;;;;7.35;6.65;;;;;;;15.08;100.00;99115.41;334579;28;4526;-69
2023/04/29 00:48:15;;;;;;;7.57;6.68;;;;;;;15.02;100.00;99110.53;331504;28;17697;-70
2023/04/29 00:48:27;;;;;;;6.13;4.68;;;;;;;15.04;100.00;99113.91;336211;28;5124;-70
2023/04/29 00:48:40;;;;;;;6.35;3.92;;;;;;;15.02;100.00;99118.38;335914;28;4953;-70
2023/04/29 00:48:52;;;;;;;6.15;4.30;;;;;;;15.01;100.00;99116.72;333085;28;18046;-70
2023/04/29 00:49:04;;;;;;;5.00;4.50;;;;;;;15.00;100.00;99117.63;335187;28;5030;-70
2023/04/29 00:49:16;;;;;;;5.10;4.53;;;;;;;15.05;100.00;99120.84;332398;28;16804;-70
2023/04/29 00:49:28;;;;;;;4.95;4.30;;;;;;;15.04;100.00;99115.69;333900;28;6024;-69
2023/04/29 00:49:40;;;;;;;7.72;6.10;;;;;;;15.05;100.00;99119.97;332366;28;16188;-71
2023/04/29 00:49:52;;;;;;;9.23;7.82;;;;;;;15.05;100.00;99119.97;335562;28;5012;-69
2023/04/29 00:50:07;;;;;;;10.77;8.10;;;;;;;15.05;100.00;99118.22;332095;28;4650;-71
2023/04/29 00:50:20;;;;;;;8.77;5.72;;;;;;;15.08;100.00;99123.25;335994;28;5268;-70
2023/04/29 00:50:33;;;;;;;7.00;4.78;;;;;;;15.07;100.00;99123.34;333073;28;17914;-69
2023/04/29 00:50:44;;;;;;;6.85;6.15;;;;;;;15.09;100.00;99126.72;333421;28;4615;-71
2023/04/29 00:50:56;;;;;;;7.60;6.90;;;;;;;15.05;100.00;99122.59;336058;28;4829;-69
2023/04/29 00:51:09;;;;;;;6.90;6.22;;;;;;;15.06;100.00;99119.88;334907;28;4759;-69
2023/04/29 00:51:21;;;;;;;5.30;4.80;;;;;;;15.05;100.00;99120.84;332791;28;18275;-68
2023/04/29 00:51:35;;;;;;;5.97;5.15;;;;;;;15.01;100.00;99118.47;334895;28;5203;-70
2023/04/29 00:51:47;;;;;;;6.13;5.28;;;;;;;15.02;100.00;99120.16;332072;28;17977;-70
2023/04/29 00:52:00;;;;;;;5.82;5.05;;;;;;;15.06;100.00;99117.28;334785;28;4683;-69
2023/04/29 00:52:13;;;;;;;6.50;5.00;;;;;;;15.04;100.00;99119.13;333062;28;18000;-70
2023/04/29 00:52:29;;;;;;;6.22;4.97;;;;;;;15.02;100.00;99121.00;329351;29;18824;-71
2023/04/29 00:52:42;;;;;;;5.43;4.63;;;;;;;15.01;100.00;99119.34;331609;28;18938;-70
2023/04/29 00:52:54;;;;;;;7.68;6.88;;;;;;;15.00;100.00;99128.09;335080;28;5628;-70
2023/04/29 00:53:11;;;;;;;8.38;7.57;;;;;;;15.03;100.00;99127.94;332191;28;19128;-68
2023/04/29 00:53:23;;;;;;;6.18;5.32;;;;;;;15.01;100.00;99124.56;332385;28;17441;-69
2023/04/29 00:53:35;;;;;;;5.25;4.45;;;;;;;15.04;100.00;99116.53;332901;28;7536;-71
2023/04/29 00:53:48;;;;;;;5.30;4.13;;;;;;;15.05;100.00;99122.59;334747;28;4854;-70
2023/04/29 00:54:03;;;;;;;5.72;4.00;;;;;;;15.07;100.00;99123.34;331108;29;18000;-70
2023/04/29 00:54:16;;;;;;;5.80;3.90;;;;;;;15.06;100.00;99119.88;333163;28;17878;-70
2023/04/29 00:54:28;;;;;;;6.35;4.68;;;;;;;15.08;100.00;99115.41;336100;28;5251;-70
2023/04/29 00:54:40;;;;;;;7.00;6.15;;;;;;;15.11;100.00;99123.09;332900;28;18352;-70
2023/04/29 00:54:53;;;;;;;8.18;7.30;;;;;;;15.12;100.00;99121.31;335730;28;4523;-70
2023/04/29 00:55:07;;;;;;;7.63;6.82;;;;;;;15.13;100.00;99118.59;331726;28;17050;-71
2023/04/29 00:55:19;;;;;;;6.65;5.63;;;;;;;15.14;100.00;99124.66;335383;28;5386;-68
2023/04/29 00:55:32;;;;;;;5.70;4.60;;;;;;;15.14;100.00;99120.28;332882;28;18149;-70
2023/04/29 00:55:46;;;;;;;5.53;3.92;;;;;;;15.15;100.00;99126.34;334976;28;4679;-69
2023/04/29 00:56:01;;;;;;;4.93;3.55;;;;;;;15.16;100.00;99117.56;332456;28;18426;-70
2023/04/29 00:56:14;;;;;;;4.47;3.78;;;;;;;15.17;100.00;99122.72;331560;29;17990;-70
2023/04/29 00:56:30;;;;;;;4.90;4.00;;;;;;;15.17;100.00;99120.09;331826;29;18029;-70
2023/04/29 00:56:44;;;;;;;5.15;3.80;;;;;;;15.20;100.00;99123.47;331417;28;17443;-70
2023/04/29 00:56:58;;;;;;;5.18;3.60;;;;;;;15.16;100.00;99123.63;332100;28;17774;-70
2023/04/29 00:57:11;;;;;;;4.55;3.58;;;;;;;15.16;100.00;99122.81;332024;28;18193;-69
2023/04/29 00:57:23;;;;;;;4.90;3.58;;;;;;;15.08;100.00;99120.63;334815;28;4650;-69
2023/04/29 00:57:35;;;;;;;4.65;3.60;;;;;;;15.10;100.00;99124.00;332865;28;7277;-71
2023/04/29 00:57:48;;;;;;;4.45;3.58;;;;;;;15.13;100.00;99122.97;335138;28;5797;-70
2023/04/29 00:58:01;;;;;;;4.90;3.60;;;;;;;15.13;100.00;99123.84;332179;28;16300;-72
2023/04/29 00:58:13;;;;;;;5.80;3.70;;;;;;;15.09;100.00;99122.34;334718;28;4674;-71
2023/04/29 00:58:32;;;;;;;5.20;3.50;;;;;;;15.05;100.00;99120.84;331876;28;18213;-71
2023/04/29 00:58:48;;;;;;;3.78;3.42;;;;;;;15.01;100.00;99121.94;332714;28;17241;-70
2023/04/29 00:59:02;;;;;;;3.88;3.47;;;;;;;15.05;100.00;99118.22;331436;29;17670;-70
2023/04/29 00:59:15;;;;;;;5.22;3.47;;;;;;;15.06;100.00;99119.06;334428;29;4758;-70
2023/04/29 00:59:32;;;;;;;5.95;3.47;;;;;;;15.07;100.00;99123.34;332339;28;18361;-70